createdAt,value
2022-12-08T00:00:41.729Z,1007.23
2022-12-08T00:01:41.789Z,1007.24
2022-12-08T00:02:41.790Z,1007.27
2022-12-08T00:03:41.766Z,1007.21
2022-12-08T00:04:41.660Z,1007.20
2022-12-08T00:05:41.705Z,1007.14
2022-12-08T00:06:41.681Z,1007.18
2022-12-08T00:07:41.694Z,1007.16
2022-12-08T00:08:41.613Z,1007.16
2022-12-08T00:09:41.616Z,1007.12
2022-12-08T00:10:48.888Z,1007.15
2022-12-08T00:11:42.619Z,1007.12
2022-12-08T00:12:41.564Z,1007.10
2022-12-08T00:13:41.576Z,1006.98
2022-12-08T00:14:41.560Z,1007.04
2022-12-08T00:15:41.552Z,1007.05
2022-12-08T00:16:41.583Z,1006.97
2022-12-08T00:17:41.571Z,1006.97
2022-12-08T00:18:41.512Z,1006.98
2022-12-08T00:19:41.505Z,1006.92
2022-12-08T00:20:41.481Z,1006.93
2022-12-08T00:21:41.475Z,1006.89
2022-12-08T00:22:41.495Z,1006.89
2022-12-08T00:23:42.409Z,1006.83
2022-12-08T00:24:41.440Z,1006.82
2022-12-08T00:25:41.451Z,1006.80
2022-12-08T00:26:41.423Z,1006.82
2022-12-08T00:27:41.414Z,1006.74
2022-12-08T00:28:41.419Z,1006.74
2022-12-08T00:29:41.397Z,1006.76
2022-12-08T00:30:41.391Z,1006.73
2022-12-08T00:31:41.439Z,1006.75
2022-12-08T00:32:41.348Z,1006.76
2022-12-08T00:33:41.389Z,1006.76
2022-12-08T00:34:41.338Z,1006.74
2022-12-08T00:35:43.434Z,1006.78
2022-12-08T00:36:41.308Z,1006.74
2022-12-08T00:37:41.327Z,1006.76
2022-12-08T00:38:41.284Z,1006.79
2022-12-08T00:39:41.329Z,1006.79
2022-12-08T00:40:41.262Z,1006.69
2022-12-08T00:41:41.279Z,1006.71
2022-12-08T00:42:41.259Z,1006.68
2022-12-08T00:43:41.262Z,1006.78
2022-12-08T00:44:41.234Z,1006.67
2022-12-08T00:45:41.289Z,1006.72
2022-12-08T00:46:41.199Z,1006.74
2022-12-08T00:47:41.212Z,1006.75
2022-12-08T00:48:41.170Z,1006.68
2022-12-08T00:49:41.182Z,1006.73
2022-12-08T00:50:41.204Z,1006.71
2022-12-08T00:51:41.142Z,1006.77
2022-12-08T00:52:41.151Z,1006.77
2022-12-08T00:53:41.135Z,1006.76
2022-12-08T00:54:41.102Z,1006.74
2022-12-08T00:55:41.124Z,1006.78
2022-12-08T00:56:41.081Z,1006.74
2022-12-08T00:57:41.122Z,1006.72
2022-12-08T00:58:41.087Z,1006.68
2022-12-08T00:59:41.062Z,1006.70
2022-12-08T01:00:41.591Z,1006.59
2022-12-08T01:01:41.099Z,1006.57
2022-12-08T01:02:41.024Z,1006.67
2022-12-08T01:03:41.086Z,1006.62
2022-12-08T01:04:41.012Z,1006.63
2022-12-08T01:05:41.943Z,1006.59
2022-12-08T01:06:41.003Z,1006.59
2022-12-08T01:07:41.046Z,1006.59
2022-12-08T01:08:40.963Z,1006.57
2022-12-08T01:09:40.973Z,1006.60
2022-12-08T01:10:40.968Z,1006.62
2022-12-08T01:11:40.913Z,1006.59
2022-12-08T01:12:40.904Z,1006.51
2022-12-08T01:13:40.904Z,1006.58
2022-12-08T01:14:40.882Z,1006.58
2022-12-08T01:15:40.880Z,1006.51
2022-12-08T01:16:40.968Z,1006.52
2022-12-08T01:17:40.855Z,1006.50
2022-12-08T01:18:40.843Z,1006.45
2022-12-08T01:19:40.836Z,1006.52
2022-12-08T01:20:40.818Z,1006.51
2022-12-08T01:21:40.818Z,1006.50
2022-12-08T01:22:40.824Z,1006.49
2022-12-08T01:23:40.787Z,1006.50
2022-12-08T01:24:40.776Z,1006.46
2022-12-08T01:25:40.823Z,1006.53
2022-12-08T01:26:41.709Z,1006.50
2022-12-08T01:27:40.757Z,1006.56
2022-12-08T01:28:40.742Z,1006.49
2022-12-08T01:29:40.718Z,1006.50
2022-12-08T01:30:40.790Z,1006.52
2022-12-08T01:31:40.753Z,1006.52
2022-12-08T01:32:40.687Z,1006.49
2022-12-08T01:33:40.678Z,1006.49
2022-12-08T01:34:40.667Z,1006.50
2022-12-08T01:35:40.660Z,1006.57
2022-12-08T01:36:40.643Z,1006.45
2022-12-08T01:37:40.678Z,1006.45
2022-12-08T01:38:40.619Z,1006.49
2022-12-08T01:39:40.620Z,1006.53
2022-12-08T01:40:40.605Z,1006.50
2022-12-08T01:41:40.590Z,1006.53
2022-12-08T01:42:40.584Z,1006.49
2022-12-08T01:43:40.590Z,1006.55
2022-12-08T01:44:40.555Z,1006.53
2022-12-08T01:45:40.574Z,1006.54
2022-12-08T01:46:40.641Z,1006.43
2022-12-08T01:47:40.646Z,1006.47
2022-12-08T01:48:40.512Z,1006.45
2022-12-08T01:49:40.522Z,1006.43
2022-12-08T01:50:40.571Z,1006.44
2022-12-08T01:51:40.481Z,1006.40
2022-12-08T01:52:40.475Z,1006.40
2022-12-08T01:53:40.463Z,1006.36
2022-12-08T01:54:40.491Z,1006.35
2022-12-08T01:55:40.435Z,1006.32
2022-12-08T01:56:40.433Z,1006.36
2022-12-08T01:57:40.420Z,1006.33
2022-12-08T01:58:40.402Z,1006.30
2022-12-08T01:59:40.395Z,1006.33
2022-12-08T02:00:40.431Z,1006.29
2022-12-08T02:01:40.404Z,1006.34
2022-12-08T02:02:40.427Z,1006.32
2022-12-08T02:03:40.357Z,1006.42
2022-12-08T02:04:40.347Z,1006.39
2022-12-08T02:05:40.355Z,1006.39
2022-12-08T02:06:40.325Z,1006.35
2022-12-08T02:07:40.345Z,1006.32
2022-12-08T02:08:40.287Z,1006.28
2022-12-08T02:09:40.286Z,1006.25
2022-12-08T02:10:40.298Z,1006.26
2022-12-08T02:11:40.286Z,1006.22
2022-12-08T02:12:40.257Z,1006.28
2022-12-08T02:13:40.230Z,1006.23
2022-12-08T02:14:40.235Z,1006.27
2022-12-08T02:15:40.260Z,1006.18
2022-12-08T02:16:41.201Z,1006.15
2022-12-08T02:17:40.190Z,1006.15
2022-12-08T02:18:40.197Z,1006.11
2022-12-08T02:19:40.166Z,1006.12
2022-12-08T02:20:41.115Z,1006.13
2022-12-08T02:21:40.169Z,1006.14
2022-12-08T02:22:40.182Z,1006.14
2022-12-08T02:23:40.127Z,1006.11
2022-12-08T02:24:40.138Z,1006.11
2022-12-08T02:25:40.105Z,1006.08
2022-12-08T02:26:40.107Z,1006.12
2022-12-08T02:27:40.101Z,1006.12
2022-12-08T02:28:40.087Z,1006.11
2022-12-08T02:29:40.080Z,1006.08
2022-12-08T02:30:40.107Z,1006.08
2022-12-08T02:31:40.085Z,1005.96
2022-12-08T02:32:40.060Z,1006.08
2022-12-08T02:33:40.015Z,1006.10
2022-12-08T02:34:40.018Z,1006.08
2022-12-08T02:35:40.012Z,1006.00
2022-12-08T02:36:39.988Z,1006.07
2022-12-08T02:37:39.992Z,1005.96
2022-12-08T02:38:40.003Z,1005.96
2022-12-08T02:39:39.965Z,1006.02
2022-12-08T02:40:39.945Z,1006.01
2022-12-08T02:41:39.923Z,1005.88
2022-12-08T02:42:39.935Z,1005.95
2022-12-08T02:43:39.899Z,1005.87
2022-12-08T02:44:39.930Z,1005.85
2022-12-08T02:45:39.890Z,1005.81
2022-12-08T02:46:39.937Z,1005.85
2022-12-08T02:47:39.851Z,1005.77
2022-12-08T02:48:39.855Z,1005.81
2022-12-08T02:49:39.841Z,1005.78
2022-12-08T02:50:39.876Z,1005.75
2022-12-08T02:51:39.821Z,1005.75
2022-12-08T02:52:39.820Z,1005.72
2022-12-08T02:53:39.792Z,1005.69
2022-12-08T02:54:39.792Z,1005.70
2022-12-08T02:55:39.767Z,1005.70
2022-12-08T02:56:39.798Z,1005.64
2022-12-08T02:57:39.756Z,1005.74
2022-12-08T02:58:39.745Z,1005.65
2022-12-08T02:59:39.725Z,1005.66
2022-12-08T03:00:39.744Z,1005.64
2022-12-08T03:01:39.813Z,1005.71
2022-12-08T03:02:39.759Z,1005.67
2022-12-08T03:03:39.716Z,1005.68
2022-12-08T03:04:39.677Z,1005.66
2022-12-08T03:05:39.666Z,1005.65
2022-12-08T03:06:39.666Z,1005.61
2022-12-08T03:07:39.697Z,1005.60
2022-12-08T03:08:39.638Z,1005.56
2022-12-08T03:09:39.656Z,1005.54
2022-12-08T03:10:40.581Z,1005.58
2022-12-08T03:11:39.596Z,1005.55
2022-12-08T03:12:39.585Z,1005.53
2022-12-08T03:13:39.577Z,1005.56
2022-12-08T03:14:39.566Z,1005.58
2022-12-08T03:15:39.613Z,1005.56
2022-12-08T03:16:39.562Z,1005.58
2022-12-08T03:17:39.524Z,1005.49
2022-12-08T03:18:39.517Z,1005.57
2022-12-08T03:19:39.513Z,1005.49
2022-12-08T03:20:39.496Z,1005.54
2022-12-08T03:21:39.508Z,1005.43
2022-12-08T03:22:39.485Z,1005.46
2022-12-08T03:23:39.457Z,1005.40
2022-12-08T03:24:39.467Z,1005.39
2022-12-08T03:25:39.437Z,1005.38
2022-12-08T03:26:39.443Z,1005.36
2022-12-08T03:27:39.412Z,1005.42
2022-12-08T03:28:39.415Z,1005.22
2022-12-08T03:29:39.426Z,1005.30
2022-12-08T03:30:39.462Z,1005.38
2022-12-08T03:31:39.461Z,1005.29
2022-12-08T03:32:39.370Z,1005.26
2022-12-08T03:33:39.356Z,1005.37
2022-12-08T03:34:39.352Z,1005.29
2022-12-08T03:35:39.361Z,1005.26
2022-12-08T03:36:39.332Z,1005.26
2022-12-08T03:37:39.306Z,1005.24
2022-12-08T03:38:39.305Z,1005.28
2022-12-08T03:39:39.291Z,1005.24
2022-12-08T03:40:39.297Z,1005.27
2022-12-08T03:41:39.281Z,1005.26
2022-12-08T03:42:39.255Z,1005.27
2022-12-08T03:43:39.237Z,1005.23
2022-12-08T03:44:39.276Z,1005.23
2022-12-08T03:45:39.221Z,1005.27
2022-12-08T03:46:39.212Z,1005.14
2022-12-08T03:47:39.240Z,1005.14
2022-12-08T03:48:39.197Z,1005.10
2022-12-08T03:49:39.174Z,1005.18
2022-12-08T03:50:40.126Z,1005.09
2022-12-08T03:51:39.148Z,1005.19
2022-12-08T03:52:39.156Z,1005.01
2022-12-08T03:53:39.159Z,1005.11
2022-12-08T03:54:39.125Z,1005.00
2022-12-08T03:55:39.116Z,1005.06
2022-12-08T03:56:39.104Z,1005.04
2022-12-08T03:57:39.092Z,1005.01
2022-12-08T03:58:39.104Z,1004.90
2022-12-08T03:59:39.068Z,1004.93
2022-12-08T04:00:39.065Z,1004.92
2022-12-08T04:01:39.135Z,1004.94
2022-12-08T04:02:39.092Z,1004.97
2022-12-08T04:03:39.067Z,1004.92
2022-12-08T04:04:39.018Z,1004.94
2022-12-08T04:05:39.019Z,1004.98
2022-12-08T04:06:38.995Z,1004.98
2022-12-08T04:07:39.000Z,1004.86
2022-12-08T04:08:38.984Z,1004.89
2022-12-08T04:09:38.955Z,1004.86
2022-12-08T04:10:38.957Z,1004.83
2022-12-08T04:11:38.967Z,1004.81
2022-12-08T04:12:38.916Z,1004.83
2022-12-08T04:13:38.903Z,1004.87
2022-12-08T04:14:38.912Z,1004.80
2022-12-08T04:15:38.943Z,1004.74
2022-12-08T04:16:38.877Z,1004.81
2022-12-08T04:17:38.899Z,1004.78
2022-12-08T04:18:38.860Z,1004.83
2022-12-08T04:19:38.863Z,1004.78
2022-12-08T04:20:38.837Z,1004.75
2022-12-08T04:21:38.817Z,1004.71
2022-12-08T04:22:39.780Z,1004.70
2022-12-08T04:23:38.828Z,1004.65
2022-12-08T04:24:38.805Z,1004.77
2022-12-08T04:25:38.773Z,1004.71
2022-12-08T04:26:38.768Z,1004.72
2022-12-08T04:27:38.769Z,1004.69
2022-12-08T04:28:38.760Z,1004.67
2022-12-08T04:29:38.720Z,1004.75
2022-12-08T04:30:38.719Z,1004.69
2022-12-08T04:31:38.782Z,1004.64
2022-12-08T04:32:41.724Z,1004.65
2022-12-08T04:33:39.690Z,1004.64
2022-12-08T04:34:38.721Z,1004.71
2022-12-08T04:35:38.670Z,1004.60
2022-12-08T04:36:38.669Z,1004.64
2022-12-08T04:37:38.645Z,1004.61
2022-12-08T04:38:38.640Z,1004.60
2022-12-08T04:39:38.620Z,1004.59
2022-12-08T04:40:38.636Z,1004.61
2022-12-08T04:41:38.594Z,1004.64
2022-12-08T04:42:38.586Z,1004.61
2022-12-08T04:43:38.571Z,1004.58
2022-12-08T04:44:38.566Z,1004.58
2022-12-08T04:45:38.551Z,1004.58
2022-12-08T04:46:43.184Z,1004.51
2022-12-08T04:47:39.537Z,1004.52
2022-12-08T04:48:38.526Z,1004.56
2022-12-08T04:49:38.503Z,1004.57
2022-12-08T04:50:38.516Z,1004.55
2022-12-08T04:51:38.523Z,1004.57
2022-12-08T04:52:38.611Z,1004.55
2022-12-08T04:53:43.411Z,1004.53
2022-12-08T04:54:39.454Z,1004.53
2022-12-08T04:55:38.443Z,1004.53
2022-12-08T04:56:38.438Z,1004.51
2022-12-08T04:57:38.455Z,1004.53
2022-12-08T04:58:38.415Z,1004.58
2022-12-08T04:59:38.394Z,1004.50
2022-12-08T05:00:38.416Z,1004.50
2022-12-08T05:01:38.528Z,1004.51
2022-12-08T05:02:38.428Z,1004.49
2022-12-08T05:03:38.382Z,1004.53
2022-12-08T05:04:38.621Z,1004.54
2022-12-08T05:05:38.327Z,1004.46
2022-12-08T05:06:38.350Z,1004.51
2022-12-08T05:07:38.386Z,1004.46
2022-12-08T05:08:38.312Z,1004.47
2022-12-08T05:09:40.236Z,1004.50
2022-12-08T05:10:38.277Z,1004.53
2022-12-08T05:11:38.313Z,1004.55
2022-12-08T05:12:38.259Z,1004.52
2022-12-08T05:13:38.253Z,1004.50
2022-12-08T05:14:38.260Z,1004.50
2022-12-08T05:15:38.263Z,1004.49
2022-12-08T05:16:38.296Z,1004.52
2022-12-08T05:17:38.207Z,1004.48
2022-12-08T05:18:38.203Z,1004.54
2022-12-08T05:19:38.229Z,1004.52
2022-12-08T05:20:38.171Z,1004.45
2022-12-08T05:21:38.167Z,1004.57
2022-12-08T05:22:38.172Z,1004.50
2022-12-08T05:23:38.144Z,1004.51
2022-12-08T05:24:42.547Z,1004.48
2022-12-08T05:26:49.379Z,1004.43
2022-12-08T05:27:49.302Z,1004.43
2022-12-08T05:28:49.274Z,1004.44
2022-12-08T05:29:49.272Z,1004.52
2022-12-08T05:30:49.228Z,1004.45
2022-12-08T05:31:49.295Z,1004.45
2022-12-08T05:32:49.200Z,1004.43
2022-12-08T05:33:49.251Z,1004.43
2022-12-08T05:34:49.177Z,1004.46
2022-12-08T05:35:49.187Z,1004.44
2022-12-08T05:36:49.150Z,1004.46
2022-12-08T05:37:49.175Z,1004.44
2022-12-08T05:38:49.138Z,1004.39
2022-12-08T05:39:50.232Z,1004.47
2022-12-08T05:40:49.118Z,1004.43
2022-12-08T05:41:49.101Z,1004.42
2022-12-08T05:42:49.123Z,1004.44
2022-12-08T05:43:49.936Z,1004.40
2022-12-08T05:44:50.236Z,1004.36
2022-12-08T05:45:49.123Z,1004.35
2022-12-08T05:46:49.383Z,1004.36
2022-12-08T05:47:49.041Z,1004.35
2022-12-08T05:48:49.059Z,1004.36
2022-12-08T05:49:49.013Z,1004.34
2022-12-08T05:50:49.008Z,1004.36
2022-12-08T05:51:49.021Z,1004.30
2022-12-08T05:52:48.999Z,1004.23
2022-12-08T05:53:49.011Z,1004.31
2022-12-08T05:54:48.965Z,1004.29
2022-12-08T05:55:48.949Z,1004.25
2022-12-08T05:56:48.961Z,1004.23
2022-12-08T05:57:48.920Z,1004.28
2022-12-08T05:58:48.979Z,1004.20
2022-12-08T05:59:48.910Z,1004.24
2022-12-08T06:00:48.906Z,1004.17
2022-12-08T06:01:48.931Z,1004.19
2022-12-08T06:02:49.023Z,1004.23
2022-12-08T06:03:48.875Z,1004.21
2022-12-08T06:04:53.148Z,1004.21
2022-12-08T06:05:48.839Z,1004.14
2022-12-08T06:06:48.853Z,1004.15
2022-12-08T06:07:48.849Z,1004.15
2022-12-08T06:08:48.815Z,1004.15
2022-12-08T06:09:48.822Z,1004.13
2022-12-08T06:10:48.790Z,1004.14
2022-12-08T06:11:48.796Z,1004.12
2022-12-08T06:12:48.763Z,1004.12
2022-12-08T06:13:48.763Z,1004.10
2022-12-08T06:14:48.743Z,1004.19
2022-12-08T06:15:48.745Z,1004.07
2022-12-08T06:16:48.850Z,1004.09
2022-12-08T06:17:48.724Z,1004.13
2022-12-08T06:18:48.708Z,1004.10
2022-12-08T06:19:48.685Z,1004.09
2022-12-08T06:22:06.547Z,1004.09
2022-12-08T06:23:05.766Z,1004.04
2022-12-08T06:24:05.796Z,1004.13
2022-12-08T06:25:09.561Z,1004.03
2022-12-08T06:26:05.715Z,1004.05
2022-12-08T06:27:05.995Z,1004.07
2022-12-08T06:28:05.690Z,1004.09
2022-12-08T06:29:05.670Z,1004.04
2022-12-08T06:30:06.003Z,1004.06
2022-12-08T06:31:05.655Z,1004.10
2022-12-08T06:32:05.692Z,1004.12
2022-12-08T06:33:06.488Z,1004.06
2022-12-08T06:34:05.617Z,1004.10
2022-12-08T06:35:05.791Z,1004.14
2022-12-08T06:36:05.608Z,1004.15
2022-12-08T06:37:05.588Z,1004.15
2022-12-08T06:38:06.417Z,1004.14
2022-12-08T06:39:05.893Z,1004.12
2022-12-08T06:40:05.894Z,1004.13
2022-12-08T06:41:05.944Z,1004.10
2022-12-08T06:42:05.983Z,1004.15
2022-12-08T06:43:05.510Z,1004.15
2022-12-08T06:44:06.483Z,1004.12
2022-12-08T06:45:05.531Z,1004.17
2022-12-08T06:46:05.666Z,1004.09
2022-12-08T06:47:05.479Z,1004.19
2022-12-08T06:48:05.476Z,1004.18
2022-12-08T06:49:05.453Z,1004.18
2022-12-08T06:50:05.704Z,1004.17
2022-12-08T06:51:06.163Z,1004.21
2022-12-08T06:52:05.428Z,1004.16
2022-12-08T06:53:05.893Z,1004.19
2022-12-08T06:54:05.404Z,1004.22
2022-12-08T06:55:05.399Z,1004.17
2022-12-08T06:56:05.393Z,1004.18
2022-12-08T06:57:06.167Z,1004.15
2022-12-08T06:58:05.366Z,1004.16
2022-12-08T06:59:05.351Z,1004.12
2022-12-08T07:00:07.103Z,1004.16
2022-12-08T07:01:06.819Z,1004.11
2022-12-08T07:02:05.401Z,1004.17
2022-12-08T07:03:05.328Z,1004.09
2022-12-08T07:04:05.407Z,1004.10
2022-12-08T07:05:06.236Z,1004.12
2022-12-08T07:06:06.735Z,1004.16
2022-12-08T07:07:05.263Z,1004.17
2022-12-08T07:08:05.332Z,1004.15
2022-12-08T07:09:05.678Z,1004.19
2022-12-08T07:10:05.392Z,1004.21
2022-12-08T07:11:06.185Z,1004.29
2022-12-08T07:12:05.207Z,1004.27
2022-12-08T07:13:05.354Z,1004.33
2022-12-08T07:14:05.213Z,1004.30
2022-12-08T07:15:05.166Z,1004.32
2022-12-08T07:16:05.191Z,1004.27
2022-12-08T07:17:05.287Z,1004.30
2022-12-08T07:18:05.139Z,1004.22
2022-12-08T07:19:05.160Z,1004.31
2022-12-08T07:20:05.843Z,1004.31
2022-12-08T07:21:06.419Z,1004.35
2022-12-08T07:22:05.108Z,1004.39
2022-12-08T07:23:06.553Z,1004.32
2022-12-08T07:24:05.070Z,1004.30
2022-12-08T07:25:05.189Z,1004.43
2022-12-08T07:26:05.052Z,1004.37
2022-12-08T07:27:05.208Z,1004.34
2022-12-08T07:28:05.046Z,1004.42
2022-12-08T07:29:05.030Z,1004.39
2022-12-08T07:30:05.267Z,1004.46
2022-12-08T07:31:05.603Z,1004.36
2022-12-08T07:32:04.988Z,1004.38
2022-12-08T07:33:06.429Z,1004.42
2022-12-08T07:34:05.414Z,1004.47
2022-12-08T07:35:04.963Z,1004.33
2022-12-08T07:36:04.949Z,1004.44
2022-12-08T07:37:05.203Z,1004.42
2022-12-08T07:38:04.923Z,1004.38
2022-12-08T07:39:05.121Z,1004.46
2022-12-08T07:40:05.209Z,1004.52
2022-12-08T07:41:04.891Z,1004.40
2022-12-08T07:42:04.874Z,1004.42
2022-12-08T07:43:04.900Z,1004.45
2022-12-08T07:44:04.852Z,1004.40
2022-12-08T07:45:04.840Z,1004.45
2022-12-08T07:46:04.909Z,1004.39
2022-12-08T07:47:04.823Z,1004.48
2022-12-08T07:48:04.863Z,1004.44
2022-12-08T07:49:04.824Z,1004.42
2022-12-08T07:50:05.162Z,1004.49
2022-12-08T07:51:04.782Z,1004.48
2022-12-08T07:52:04.760Z,1004.42
2022-12-08T07:53:04.779Z,1004.39
2022-12-08T07:54:04.740Z,1004.47
2022-12-08T07:55:04.744Z,1004.49
2022-12-08T07:56:04.715Z,1004.49
2022-12-08T07:57:04.803Z,1004.45
2022-12-08T07:58:04.762Z,1004.46
2022-12-08T07:59:05.563Z,1004.44
2022-12-08T08:00:04.934Z,1004.52
2022-12-08T08:01:05.020Z,1004.44
2022-12-08T08:02:23.429Z,1004.47
2022-12-08T08:03:05.666Z,1004.47
2022-12-08T08:04:06.064Z,1004.37
2022-12-08T08:05:04.686Z,1004.35
2022-12-08T08:06:06.293Z,1004.38
2022-12-08T08:07:04.614Z,1004.39
2022-12-08T08:08:04.658Z,1004.43
2022-12-08T08:09:06.057Z,1004.41
2022-12-08T08:10:04.863Z,1004.39
2022-12-08T08:11:11.317Z,1004.38
2022-12-08T08:13:16.037Z,1004.37
2022-12-08T08:14:17.957Z,1004.46
2022-12-08T08:15:16.039Z,1004.41
2022-12-08T08:16:17.023Z,1004.45
2022-12-08T08:17:17.518Z,1004.37
2022-12-08T08:18:17.435Z,1004.43
2022-12-08T08:19:17.458Z,1004.42
2022-12-08T08:20:15.957Z,1004.51
2022-12-08T08:21:43.629Z,1004.48
2022-12-08T08:22:17.378Z,1004.47
2022-12-08T08:23:15.978Z,1004.41
2022-12-08T08:24:15.903Z,1004.47
2022-12-08T08:25:15.930Z,1004.43
2022-12-08T08:26:15.878Z,1004.39
2022-12-08T08:27:15.933Z,1004.42
2022-12-08T08:28:17.293Z,1004.41
2022-12-08T08:29:15.883Z,1004.41
2022-12-08T08:30:20.286Z,1004.48
2022-12-08T08:31:17.820Z,1004.45
2022-12-08T08:32:16.041Z,1004.45
2022-12-08T08:33:15.831Z,1004.47
2022-12-08T08:34:15.804Z,1004.45
2022-12-08T08:35:16.558Z,1004.48
2022-12-08T08:36:15.770Z,1004.46
2022-12-08T08:37:15.869Z,1004.46
2022-12-08T08:38:15.763Z,1004.48
2022-12-08T08:39:15.871Z,1004.43
2022-12-08T08:40:15.757Z,1004.49
2022-12-08T08:41:16.603Z,1004.44
2022-12-08T08:42:15.737Z,1004.46
2022-12-08T08:43:15.693Z,1004.42
2022-12-08T08:44:15.693Z,1004.48
2022-12-08T08:45:15.716Z,1004.43
2022-12-08T08:46:17.148Z,1004.45
2022-12-08T08:47:17.142Z,1004.48
2022-12-08T08:48:15.646Z,1004.44
2022-12-08T08:49:15.714Z,1004.47
2022-12-08T08:50:15.616Z,1004.48
2022-12-08T08:51:15.659Z,1004.45
2022-12-08T08:52:15.596Z,1004.52
2022-12-08T08:53:15.598Z,1004.51
2022-12-08T08:54:15.627Z,1004.43
2022-12-08T08:55:15.720Z,1004.52
2022-12-08T08:56:15.574Z,1004.49
2022-12-08T08:57:17.507Z,1004.44
2022-12-08T08:58:16.546Z,1004.50
2022-12-08T08:59:15.598Z,1004.46
2022-12-08T09:00:15.506Z,1004.45
2022-12-08T09:01:17.014Z,1004.39
2022-12-08T09:02:15.620Z,1004.40
2022-12-08T09:03:16.665Z,1004.46
2022-12-08T09:04:15.498Z,1004.43
2022-12-08T09:05:15.455Z,1004.47
2022-12-08T09:06:15.512Z,1004.43
2022-12-08T09:07:15.455Z,1004.42
2022-12-08T09:08:15.467Z,1004.46
2022-12-08T09:09:15.397Z,1004.38
2022-12-08T09:10:15.425Z,1004.42
2022-12-08T09:11:15.406Z,1004.39
2022-12-08T09:12:15.366Z,1004.43
2022-12-08T09:13:16.172Z,1004.41
2022-12-08T09:14:15.367Z,1004.38
2022-12-08T09:15:15.337Z,1004.37
2022-12-08T09:16:15.463Z,1004.33
2022-12-08T09:17:15.367Z,1004.41
2022-12-08T09:18:16.759Z,1004.39
2022-12-08T09:19:15.387Z,1004.37
2022-12-08T09:20:15.486Z,1004.38
2022-12-08T09:21:16.268Z,1004.38
2022-12-08T09:22:15.264Z,1004.37
2022-12-08T09:23:15.259Z,1004.40
2022-12-08T09:24:15.253Z,1004.43
2022-12-08T09:25:15.241Z,1004.45
2022-12-08T09:26:15.250Z,1004.39
2022-12-08T09:27:15.240Z,1004.35
2022-12-08T09:28:15.203Z,1004.37
2022-12-08T09:29:15.191Z,1004.33
2022-12-08T09:30:15.178Z,1004.40
2022-12-08T09:31:15.208Z,1004.34
2022-12-08T09:32:15.174Z,1004.44
2022-12-08T09:33:15.143Z,1004.39
2022-12-08T09:34:15.580Z,1004.45
2022-12-08T09:35:15.130Z,1004.39
2022-12-08T09:36:15.115Z,1004.47
2022-12-08T09:37:15.147Z,1004.40
2022-12-08T09:38:15.090Z,1004.38
2022-12-08T09:39:15.132Z,1004.40
2022-12-08T09:40:16.011Z,1004.49
2022-12-08T09:41:15.087Z,1004.37
2022-12-08T09:42:15.042Z,1004.38
2022-12-08T09:43:15.056Z,1004.45
2022-12-08T09:44:15.027Z,1004.43
2022-12-08T09:45:15.013Z,1004.43
2022-12-08T09:46:15.156Z,1004.42
2022-12-08T09:47:14.991Z,1004.29
2022-12-08T09:48:14.983Z,1004.44
2022-12-08T09:49:14.973Z,1004.39
2022-12-08T09:50:15.914Z,1004.39
2022-12-08T09:51:14.954Z,1004.32
2022-12-08T09:52:14.974Z,1004.29
2022-12-08T09:53:14.924Z,1004.33
2022-12-08T09:54:14.939Z,1004.37
2022-12-08T09:55:14.903Z,1004.30
2022-12-08T09:56:14.893Z,1004.29
2022-12-08T09:57:15.836Z,1004.32
2022-12-08T09:58:14.916Z,1004.38
2022-12-08T09:59:14.891Z,1004.36
2022-12-08T10:00:14.853Z,1004.33
2022-12-08T10:01:14.859Z,1004.37
2022-12-08T10:02:14.870Z,1004.36
2022-12-08T10:03:16.816Z,1004.31
2022-12-08T10:04:14.830Z,1004.33
2022-12-08T10:05:14.935Z,1004.31
2022-12-08T10:06:14.921Z,1004.29
2022-12-08T10:07:14.786Z,1004.33
2022-12-08T10:08:14.815Z,1004.28
2022-12-08T10:09:17.201Z,1004.28
2022-12-08T10:10:15.846Z,1004.33
2022-12-08T10:11:14.737Z,1004.35
2022-12-08T10:12:14.717Z,1004.29
2022-12-08T10:13:14.703Z,1004.33
2022-12-08T10:14:14.688Z,1004.27
2022-12-08T10:15:14.729Z,1004.31
2022-12-08T10:16:21.283Z,1004.26
2022-12-08T10:17:15.671Z,1004.29
2022-12-08T10:18:14.653Z,1004.26
2022-12-08T10:19:14.651Z,1004.30
2022-12-08T10:20:14.633Z,1004.30
2022-12-08T10:21:14.670Z,1004.28
2022-12-08T10:22:14.609Z,1004.18
2022-12-08T10:23:14.604Z,1004.23
2022-12-08T10:24:14.581Z,1004.16
2022-12-08T10:25:14.587Z,1004.17
2022-12-08T10:26:14.571Z,1004.15
2022-12-08T10:27:15.520Z,1004.22
2022-12-08T10:28:14.571Z,1004.14
2022-12-08T10:29:14.539Z,1004.18
2022-12-08T10:30:14.553Z,1004.20
2022-12-08T10:31:14.562Z,1004.16
2022-12-08T10:32:14.502Z,1004.11
2022-12-08T10:33:14.494Z,1004.11
2022-12-08T10:34:14.488Z,1004.15
2022-12-08T10:35:14.493Z,1004.13
2022-12-08T10:36:14.626Z,1004.09
2022-12-08T10:37:16.434Z,1004.12
2022-12-08T10:38:14.442Z,1004.04
2022-12-08T10:39:14.430Z,1004.01
2022-12-08T10:40:14.436Z,1003.99
2022-12-08T10:41:15.385Z,1004.03
2022-12-08T10:42:14.399Z,1003.98
2022-12-08T10:43:14.420Z,1003.97
2022-12-08T10:44:14.384Z,1003.99
2022-12-08T10:45:14.355Z,1003.96
2022-12-08T10:46:14.418Z,1003.91
2022-12-08T10:47:14.408Z,1003.95
2022-12-08T10:48:14.353Z,1003.93
2022-12-08T10:49:14.307Z,1003.92
2022-12-08T10:50:14.307Z,1003.98
2022-12-08T10:51:14.903Z,1003.91
2022-12-08T10:52:14.294Z,1003.89
2022-12-08T10:53:14.305Z,1003.81
2022-12-08T10:54:19.026Z,1003.91
2022-12-08T10:55:15.235Z,1003.82
2022-12-08T10:56:14.264Z,1003.86
2022-12-08T10:57:14.225Z,1003.82
2022-12-08T10:58:14.261Z,1003.87
2022-12-08T10:59:14.192Z,1003.89
2022-12-08T11:00:14.841Z,1003.91
2022-12-08T11:01:14.193Z,1003.86
2022-12-08T11:02:14.289Z,1003.84
2022-12-08T11:03:14.154Z,1003.89
2022-12-08T11:04:14.197Z,1003.81
2022-12-08T11:05:14.137Z,1003.88
2022-12-08T11:06:14.161Z,1003.82
2022-12-08T11:07:14.107Z,1003.85
2022-12-08T11:08:14.235Z,1003.78
2022-12-08T11:09:14.097Z,1003.81
2022-12-08T11:10:14.123Z,1003.78
2022-12-08T11:11:15.029Z,1003.70
2022-12-08T11:12:14.105Z,1003.80
2022-12-08T11:13:14.046Z,1003.72
2022-12-08T11:14:14.039Z,1003.78
2022-12-08T11:15:14.059Z,1003.80
2022-12-08T11:16:14.069Z,1003.83
2022-12-08T11:17:14.006Z,1003.81
2022-12-08T11:18:13.995Z,1003.76
2022-12-08T11:19:13.969Z,1003.79
2022-12-08T11:20:13.993Z,1003.74
2022-12-08T11:21:14.031Z,1003.73
2022-12-08T11:22:13.951Z,1003.72
2022-12-08T11:23:13.958Z,1003.67
2022-12-08T11:24:13.931Z,1003.71
2022-12-08T11:25:13.919Z,1003.67
2022-12-08T11:26:13.962Z,1003.67
2022-12-08T11:27:13.930Z,1003.68
2022-12-08T11:28:13.880Z,1003.70
2022-12-08T11:29:13.937Z,1003.62
2022-12-08T11:30:14.820Z,1003.64
2022-12-08T11:31:13.921Z,1003.60
2022-12-08T11:32:13.919Z,1003.62
2022-12-08T11:33:13.864Z,1003.61
2022-12-08T11:34:13.832Z,1003.56
2022-12-08T11:35:13.916Z,1003.55
2022-12-08T11:36:13.796Z,1003.55
2022-12-08T11:37:13.898Z,1003.54
2022-12-08T11:38:21.736Z,1003.55
2022-12-08T11:39:14.797Z,1003.53
2022-12-08T11:40:13.789Z,1003.53
2022-12-08T11:41:16.361Z,1003.52
2022-12-08T11:42:13.730Z,1003.49
2022-12-08T11:43:13.721Z,1003.44
2022-12-08T11:44:14.392Z,1003.49
2022-12-08T11:45:13.733Z,1003.46
2022-12-08T11:46:13.792Z,1003.52
2022-12-08T11:47:13.678Z,1003.44
2022-12-08T11:48:13.665Z,1003.44
2022-12-08T11:49:13.643Z,1003.46
2022-12-08T11:50:18.129Z,1003.48
2022-12-08T11:51:14.663Z,1003.46
2022-12-08T11:52:13.621Z,1003.40
2022-12-08T11:53:13.605Z,1003.43
2022-12-08T11:54:13.614Z,1003.39
2022-12-08T11:55:13.584Z,1003.45
2022-12-08T11:56:13.586Z,1003.39
2022-12-08T11:57:13.575Z,1003.42
2022-12-08T11:58:13.590Z,1003.35
2022-12-08T11:59:13.543Z,1003.41
2022-12-08T12:00:13.583Z,1003.40
2022-12-08T12:01:13.518Z,1003.43
2022-12-08T12:02:13.643Z,1003.42
2022-12-08T12:03:13.553Z,1003.42
2022-12-08T12:04:13.501Z,1003.39
2022-12-08T12:05:15.318Z,1003.36
2022-12-08T12:06:30.807Z,1003.38
2022-12-08T12:07:14.499Z,1003.39
2022-12-08T12:08:13.488Z,1003.40
2022-12-08T12:09:13.436Z,1003.39